Weather History for KCBK - February, 2014

Change the Weather History Date:

Friday, February 21, 2014

  Actual Average (KGLD) Record (KGLD)
Temperature  
Mean Temperature 36 °F 34 °F  
Max Temperature 50 °F 47 °F 73 °F (1995)
Min Temperature 23 °F 21 °F -5 °F (1953)
Degree Days  
Heating Degree Days 28 31  
Month to date heating degree days 705  
Since 1 July heating degree days 4208  
Cooling Degree Days 0 0  
Month to date cooling degree days 0  
Year to date cooling degree days 0  
Moisture  
Dew Point 25 °F    
Average Humidity 64    
Maximum Humidity 86    
Minimum Humidity 40    
Precipitation  
Precipitation 0.00 in 0.02 in 0.74 in (1931)
Month to date precipitation 0.34  
Year to date precipitation 0.72  
Snow  
Snow 0.00 in 0.10 in - ()
Month to date snowfall 4.2  
Since 1 July snowfall 22.8  
Snow Depth -    
Sea Level Pressure  
Sea Level Pressure 29.87 in    
Wind  
Wind Speed 10 mph (West)    
Max Wind Speed 22 mph    
Max Gust Speed 30 mph    
Visibility 10 miles    
Events      
T = Trace of Precipitation, MM = Missing Value Source: NWS Daily Summary

Daily Weather History Graph

Daily Weather History Graph

Search for Another Location

Airport or City:

Trip Planner

Search our weather history database for the weather conditions in past years. The results will help you decide how hot, cold, wet, or windy it might be!

Date:

Astronomy

Feb. 21, 2014 Rise Set
Actual Time 7:28 AM CST 6:27 PM CST
Civil Twilight 7:01 AM CST 6:55 PM CST
Nautical Twilight 6:29 AM CST 7:26 PM CST
Astronomical Twilight 5:58 AM CST 7:57 PM CST
Moon 12:21 AM CST (2/21) 10:55 AM CST (2/21)
Length of Visible Light 11h 53m
Length of Day
10h 59m
Waning Gibbous, 60% of the Moon is Illuminated
Feb 21
Waning Gibbous
Feb 22
Last Quarter
Mar 1
New
Mar 8
First Quarter
Mar 16
Full

Hourly Weather History & Observations

Time (CST) Temp. Windchill Dew Point Humidity Pressure Visibility Wind Dir Wind Speed Gust Speed Precip Events Conditions
12:10 AM 24.8 °F 15.3 °F 19.4 °F 80% 29.91 in 10.0 mi WSW 9.2 mph - N/A   Clear
12:30 AM 23.0 °F 14.7 °F 19.4 °F 86% 29.91 in 10.0 mi WSW 6.9 mph - N/A   Clear
12:55 AM 24.8 °F 16.1 °F 17.6 °F 74% 29.90 in 10.0 mi WSW 8.1 mph - N/A   Clear
1:10 AM 23.0 °F 13.1 °F 17.6 °F 80% 29.90 in 10.0 mi WSW 9.2 mph - N/A   Clear
1:30 AM 24.8 °F 14.6 °F 17.6 °F 74% 29.89 in 10.0 mi WSW 10.4 mph - N/A   Clear
1:50 AM 26.6 °F 17.5 °F 17.6 °F 69% 29.88 in 10.0 mi WSW 9.2 mph - N/A   Clear
2:15 AM 23.0 °F 13.9 °F 17.6 °F 80% 29.87 in 10.0 mi SW 8.1 mph - N/A   Clear
2:35 AM 26.6 °F 16.2 °F 17.6 °F 69% 29.87 in 10.0 mi WSW 11.5 mph - N/A   Clear
2:55 AM 26.6 °F 16.2 °F 19.4 °F 74% 29.87 in 10.0 mi SW 11.5 mph - N/A   Clear
3:15 AM 26.6 °F 16.2 °F 17.6 °F 69% 29.87 in 10.0 mi WSW 11.5 mph - N/A   Clear
3:35 AM 23.0 °F 13.1 °F 17.6 °F 80% 29.86 in 10.0 mi WSW 9.2 mph - N/A   Clear
3:55 AM 24.8 °F 15.3 °F 17.6 °F 74% 29.86 in 10.0 mi SW 9.2 mph - N/A   Scattered Clouds
4:15 AM 23.0 °F 13.1 °F 17.6 °F 80% 29.86 in 10.0 mi WSW 9.2 mph - N/A   Mostly Cloudy
4:35 AM 26.6 °F 16.8 °F 19.4 °F 74% 29.86 in 10.0 mi SW 10.4 mph - N/A   Overcast
4:55 AM 26.6 °F 15.7 °F 19.4 °F 74% 29.86 in 10.0 mi WSW 12.7 mph - N/A   Overcast
5:15 AM 28.4 °F 18.0 °F 19.4 °F 69% 29.87 in 10.0 mi WSW 12.7 mph - N/A   Mostly Cloudy
5:30 AM 26.6 °F 16.2 °F 19.4 °F 74% 29.86 in 10.0 mi WSW 11.5 mph - N/A   Scattered Clouds
5:55 AM 26.6 °F 15.7 °F 19.4 °F 74% 29.87 in 10.0 mi West 12.7 mph - N/A   Scattered Clouds
6:10 AM 26.6 °F 15.2 °F 19.4 °F 74% 29.86 in 10.0 mi West 13.8 mph - N/A   Scattered Clouds
6:35 AM 26.6 °F 16.2 °F 19.4 °F 74% 29.86 in 10.0 mi West 11.5 mph - N/A   Clear
6:50 AM 28.4 °F 18.0 °F 19.4 °F 69% 29.86 in 10.0 mi West 12.7 mph - N/A   Clear
7:10 AM 26.6 °F 16.2 °F 19.4 °F 74% 29.86 in 10.0 mi West 11.5 mph - N/A   Clear
7:30 AM 26.6 °F 15.7 °F 19.4 °F 74% 29.86 in 10.0 mi West 12.7 mph - N/A   Clear
7:50 AM 28.4 °F 18.5 °F 19.4 °F 69% 29.87 in 10.0 mi West 11.5 mph - N/A   Clear
8:10 AM 28.4 °F 19.1 °F 21.2 °F 74% 29.87 in 10.0 mi West 10.4 mph - N/A   Clear
8:30 AM 32.0 °F 23.6 °F 21.2 °F 64% 29.87 in 10.0 mi West 10.4 mph - N/A   Clear
8:50 AM 32.0 °F 23.0 °F 23.0 °F 69% 29.88 in 10.0 mi West 11.5 mph - N/A   Clear
9:15 AM 35.6 °F 27.1 °F 24.8 °F 65% 29.88 in 10.0 mi West 12.7 mph - N/A   Clear
9:30 AM 37.4 °F 29.3 °F 24.8 °F 60% 29.88 in 10.0 mi West 12.7 mph - N/A   Clear
9:55 AM 39.2 °F 30.8 °F 26.6 °F 61% 29.88 in 10.0 mi West 15.0 mph 18.4 mph N/A   Clear
10:10 AM 41.0 °F 32.8 °F 26.6 °F 57% 29.88 in 10.0 mi WNW 16.1 mph - N/A   Clear
10:35 AM 42.8 °F 35.4 °F 28.4 °F 57% 29.88 in 10.0 mi WNW 15.0 mph - N/A   Clear
10:50 AM 42.8 °F 34.5 °F 28.4 °F 57% 29.88 in 10.0 mi WNW 18.4 mph 24.2 mph N/A   Clear
11:10 AM 44.6 °F 36.6 °F 28.4 °F 53% 29.88 in 10.0 mi NW 19.6 mph 25.3 mph N/A   Clear
11:35 AM 44.6 °F 37.2 °F 28.4 °F 53% 29.88 in 10.0 mi NW 17.3 mph 26.5 mph N/A   Clear
11:55 AM 44.6 °F 36.9 °F 28.4 °F 53% 29.89 in 10.0 mi NW 18.4 mph 26.5 mph N/A   Clear
12:10 PM 44.6 °F 36.4 °F 28.4 °F 53% 29.88 in 10.0 mi NW 20.7 mph 25.3 mph N/A   Clear
12:35 PM 46.4 °F 38.5 °F 28.4 °F 50% 29.88 in 10.0 mi NW 21.9 mph 29.9 mph N/A   Clear
12:55 PM 46.4 °F 39.2 °F 30.2 °F 53% 29.88 in 10.0 mi NW 18.4 mph 29.9 mph N/A   Clear
1:15 PM 46.4 °F 39.2 °F 28.4 °F 50% 29.87 in 10.0 mi NW 18.4 mph 28.8 mph N/A   Clear
1:30 PM 46.4 °F 40.1 °F 28.4 °F 50% 29.87 in 10.0 mi NW 15.0 mph 26.5 mph N/A   Clear
1:55 PM 48.2 °F - 28.4 °F 46% 29.86 in 10.0 mi NW 17.3 mph 24.2 mph N/A   Clear
2:10 PM 48.2 °F - 30.2 °F 50% 29.86 in 10.0 mi NW 16.1 mph 21.9 mph N/A   Clear
2:30 PM 48.2 °F - 28.4 °F 46% 29.86 in 10.0 mi NNW 16.1 mph - N/A   Clear
2:55 PM 48.2 °F - 28.4 °F 46% 29.85 in 10.0 mi NW 12.7 mph 17.3 mph N/A   Clear
3:10 PM 50.0 °F - 28.4 °F 43% 29.85 in 10.0 mi WNW 12.7 mph - N/A   Clear
3:35 PM 50.0 °F - 28.4 °F 43% 29.85 in 10.0 mi WNW 6.9 mph 17.3 mph N/A   Clear
3:55 PM 50.0 °F - 28.4 °F 43% 29.84 in 10.0 mi NW 5.8 mph - N/A   Clear
4:10 PM 50.0 °F - 28.4 °F 43% 29.84 in 10.0 mi NNW 6.9 mph - N/A   Clear
4:35 PM 50.0 °F - 28.4 °F 43% 29.84 in 10.0 mi WNW 3.5 mph - N/A   Clear
4:55 PM 50.0 °F - 26.6 °F 40% 29.84 in 10.0 mi NNW 3.5 mph - N/A   Clear
5:10 PM 50.0 °F - 26.6 °F 40% 29.84 in 10.0 mi Calm Calm - N/A   Clear
5:35 PM 48.2 °F - 28.4 °F 46% 29.84 in 10.0 mi Calm Calm - N/A   Clear
5:55 PM 46.4 °F - 28.4 °F 50% 29.84 in 10.0 mi Calm Calm - N/A   Clear
6:15 PM 42.8 °F - 28.4 °F 57% 29.84 in 10.0 mi Calm Calm - N/A   Clear
6:30 PM 42.8 °F 41.1 °F 28.4 °F 57% 29.84 in 10.0 mi ESE 3.5 mph - N/A   Clear
6:55 PM 37.4 °F 32.8 °F 28.4 °F 70% 29.84 in 10.0 mi East 5.8 mph - N/A   Clear
7:10 PM 37.4 °F 32.1 °F 28.4 °F 70% 29.85 in 10.0 mi ESE 6.9 mph - N/A   Clear
7:35 PM 37.4 °F 32.8 °F 28.4 °F 70% 29.85 in 10.0 mi SE 5.8 mph - N/A   Clear
7:50 PM 37.4 °F 33.8 °F 28.4 °F 70% 29.85 in 10.0 mi SSE 4.6 mph - N/A   Clear
8:10 PM 37.4 °F 31.4 °F 28.4 °F 70% 29.85 in 10.0 mi SSE 8.1 mph - N/A   Clear
8:35 PM 33.8 °F 27.7 °F 28.4 °F 81% 29.86 in 10.0 mi SSE 6.9 mph - N/A   Clear
8:55 PM 35.6 °F 29.2 °F 28.4 °F 75% 29.85 in 10.0 mi SSE 8.1 mph - N/A   Clear
9:10 PM 35.6 °F - 28.4 °F 75% 29.86 in 10.0 mi Calm Calm - N/A   Clear
9:30 PM 35.6 °F 29.9 °F 28.4 °F 75% 29.87 in 10.0 mi South 6.9 mph - N/A   Clear
9:55 PM 35.6 °F 29.9 °F 28.4 °F 75% 29.88 in 10.0 mi South 6.9 mph - N/A   Clear
10:15 PM 37.4 °F 31.4 °F 28.4 °F 70% 29.88 in 10.0 mi South 8.1 mph - N/A   Clear
10:30 PM 33.8 °F 27.0 °F 26.6 °F 75% 29.88 in 10.0 mi South 8.1 mph - N/A   Clear
10:55 PM 33.8 °F - 28.4 °F 81% 29.88 in 10.0 mi Calm Calm - N/A   Clear
11:15 PM 35.6 °F 30.7 °F 28.4 °F 75% 29.87 in 10.0 mi South 5.8 mph - N/A   Clear
11:35 PM 35.6 °F 32.8 °F 26.6 °F 70% 29.86 in 10.0 mi SE 3.5 mph - N/A   Clear
11:55 PM 35.6 °F 32.8 °F 26.6 °F 70% 29.86 in 10.0 mi SSW 3.5 mph - N/A   Clear